sensor_id;sensor_type;location;lat;lon;timestamp;pressure;altitude;pressure_sealevel;temperature
24586;BMP280;12743;52.262;6.172;2022-08-30T00:00:28;101831.31;;;16.30
24586;BMP280;12743;52.262;6.172;2022-08-30T00:03:12;101835.22;;;16.20
24586;BMP280;12743;52.262;6.172;2022-08-30T00:05:41;101836.94;;;16.40
24586;BMP280;12743;52.262;6.172;2022-08-30T00:08:07;101841.09;;;16.41
24586;BMP280;12743;52.262;6.172;2022-08-30T00:10:33;101843.25;;;16.36
24586;BMP280;12743;52.262;6.172;2022-08-30T00:12:59;101836.47;;;16.66
24586;BMP280;12743;52.262;6.172;2022-08-30T00:15:25;101847.56;;;16.56
24586;BMP280;12743;52.262;6.172;2022-08-30T00:17:51;101837.81;;;16.32
24586;BMP280;12743;52.262;6.172;2022-08-30T00:20:20;101839.47;;;16.37
24586;BMP280;12743;52.262;6.172;2022-08-30T00:22:47;101838.69;;;16.36
24586;BMP280;12743;52.262;6.172;2022-08-30T00:25:13;101844.06;;;16.12
24586;BMP280;12743;52.262;6.172;2022-08-30T00:27:40;101845.25;;;16.27
24586;BMP280;12743;52.262;6.172;2022-08-30T00:30:06;101831.28;;;16.14
24586;BMP280;12743;52.262;6.172;2022-08-30T00:32:32;101840.97;;;16.10
24586;BMP280;12743;52.262;6.172;2022-08-30T00:34:57;101835.59;;;16.34
24586;BMP280;12743;52.262;6.172;2022-08-30T00:37:23;101833.38;;;16.08
24586;BMP280;12743;52.262;6.172;2022-08-30T00:39:49;101824.81;;;15.87
24586;BMP280;12743;52.262;6.172;2022-08-30T00:42:16;101833.84;;;16.26
24586;BMP280;12743;52.262;6.172;2022-08-30T00:44:41;101826.06;;;16.05
24586;BMP280;12743;52.262;6.172;2022-08-30T00:47:08;101832.84;;;16.03
24586;BMP280;12743;52.262;6.172;2022-08-30T00:49:35;101831.81;;;16.20
24586;BMP280;12743;52.262;6.172;2022-08-30T00:52:02;101835.88;;;16.17
24586;BMP280;12743;52.262;6.172;2022-08-30T00:54:28;101827.59;;;15.67
24586;BMP280;12743;52.262;6.172;2022-08-30T00:56:55;101828.47;;;15.71
24586;BMP280;12743;52.262;6.172;2022-08-30T00:59:21;101804.63;;;15.59
24586;BMP280;12743;52.262;6.172;2022-08-30T01:01:48;101838.13;;;16.03
24586;BMP280;12743;52.262;6.172;2022-08-30T01:04:15;101831.97;;;15.99
24586;BMP280;12743;52.262;6.172;2022-08-30T01:06:41;101831.66;;;15.76
24586;BMP280;12743;52.262;6.172;2022-08-30T01:09:07;101816.63;;;15.56
24586;BMP280;12743;52.262;6.172;2022-08-30T01:11:34;101834.06;;;15.69
24586;BMP280;12743;52.262;6.172;2022-08-30T01:14:01;101836.09;;;15.60
24586;BMP280;12743;52.262;6.172;2022-08-30T01:16:30;101846.56;;;15.81
24586;BMP280;12743;52.262;6.172;2022-08-30T01:18:57;101845.31;;;15.90
24586;BMP280;12743;52.262;6.172;2022-08-30T01:21:45;101843.91;;;15.57
24586;BMP280;12743;52.262;6.172;2022-08-30T01:24:12;101825.81;;;15.59
24586;BMP280;12743;52.262;6.172;2022-08-30T01:26:38;101840.16;;;15.58
24586;BMP280;12743;52.262;6.172;2022-08-30T01:29:07;101847.00;;;15.59
24586;BMP280;12743;52.262;6.172;2022-08-30T01:31:34;101850.75;;;15.70
24586;BMP280;12743;52.262;6.172;2022-08-30T01:34:05;101859.59;;;15.74
24586;BMP280;12743;52.262;6.172;2022-08-30T01:36:33;101854.81;;;15.79
24586;BMP280;12743;52.262;6.172;2022-08-30T01:39:00;101856.69;;;15.79
24586;BMP280;12743;52.262;6.172;2022-08-30T01:41:30;101855.81;;;15.75
24586;BMP280;12743;52.262;6.172;2022-08-30T01:43:59;101848.75;;;15.43
24586;BMP280;12743;52.262;6.172;2022-08-30T01:46:29;101845.34;;;15.66
24586;BMP280;12743;52.262;6.172;2022-08-30T01:48:56;101857.03;;;15.65
24586;BMP280;12743;52.262;6.172;2022-08-30T01:51:24;101847.00;;;15.59
24586;BMP280;12743;52.262;6.172;2022-08-30T01:53:50;101853.50;;;15.85
24586;BMP280;12743;52.262;6.172;2022-08-30T01:56:15;101855.50;;;15.64
24586;BMP280;12743;52.262;6.172;2022-08-30T01:58:42;101836.28;;;15.55
24586;BMP280;12743;52.262;6.172;2022-08-30T02:01:10;101860.66;;;15.85
24586;BMP280;12743;52.262;6.172;2022-08-30T02:03:40;101854.81;;;15.91
24586;BMP280;12743;52.262;6.172;2022-08-30T02:06:09;101862.13;;;15.82
24586;BMP280;12743;52.262;6.172;2022-08-30T02:08:36;101856.13;;;15.85
24586;BMP280;12743;52.262;6.172;2022-08-30T02:11:01;101856.50;;;15.72
24586;BMP280;12743;52.262;6.172;2022-08-30T02:13:27;101846.97;;;15.35
24586;BMP280;12743;52.262;6.172;2022-08-30T02:15:53;101855.72;;;15.47
24586;BMP280;12743;52.262;6.172;2022-08-30T02:18:25;101855.41;;;15.61
24586;BMP280;12743;52.262;6.172;2022-08-30T02:20:50;101862.78;;;15.55
24586;BMP280;12743;52.262;6.172;2022-08-30T02:23:16;101851.94;;;15.36
24586;BMP280;12743;52.262;6.172;2022-08-30T02:25:42;101833.41;;;15.24
24586;BMP280;12743;52.262;6.172;2022-08-30T02:28:08;101849.28;;;15.24
24586;BMP280;12743;52.262;6.172;2022-08-30T02:30:33;101830.94;;;15.19
24586;BMP280;12743;52.262;6.172;2022-08-30T02:32:59;101839.28;;;14.97
24586;BMP280;12743;52.262;6.172;2022-08-30T02:35:25;101846.03;;;14.74
24586;BMP280;12743;52.262;6.172;2022-08-30T02:37:50;101843.38;;;14.94
24586;BMP280;12743;52.262;6.172;2022-08-30T02:40:16;101845.91;;;14.91
24586;BMP280;12743;52.262;6.172;2022-08-30T02:42:42;101840.38;;;14.96
24586;BMP280;12743;52.262;6.172;2022-08-30T02:45:08;101845.22;;;14.82
24586;BMP280;12743;52.262;6.172;2022-08-30T02:47:34;101843.00;;;14.84
24586;BMP280;12743;52.262;6.172;2022-08-30T02:50:01;101846.50;;;14.76
24586;BMP280;12743;52.262;6.172;2022-08-30T02:52:27;101843.66;;;14.81
24586;BMP280;12743;52.262;6.172;2022-08-30T02:54:53;101832.56;;;14.87
24586;BMP280;12743;52.262;6.172;2022-08-30T02:57:19;101839.50;;;14.92
24586;BMP280;12743;52.262;6.172;2022-08-30T02:59:44;101833.34;;;14.88
24586;BMP280;12743;52.262;6.172;2022-08-30T03:02:11;101832.13;;;14.97
24586;BMP280;12743;52.262;6.172;2022-08-30T03:04:37;101828.81;;;14.88
24586;BMP280;12743;52.262;6.172;2022-08-30T03:07:04;101832.00;;;14.82
24586;BMP280;12743;52.262;6.172;2022-08-30T03:09:30;101834.44;;;14.66
24586;BMP280;12743;52.262;6.172;2022-08-30T03:11:56;101833.34;;;14.88
24586;BMP280;12743;52.262;6.172;2022-08-30T03:14:21;101842.22;;;14.83
24586;BMP280;12743;52.262;6.172;2022-08-30T03:16:47;101839.59;;;14.63
24586;BMP280;12743;52.262;6.172;2022-08-30T03:19:12;101833.69;;;14.66
24586;BMP280;12743;52.262;6.172;2022-08-30T03:21:37;101836.91;;;14.71
24586;BMP280;12743;52.262;6.172;2022-08-30T03:24:03;101834.44;;;14.66
24586;BMP280;12743;52.262;6.172;2022-08-30T03:26:28;101812.59;;;14.57
24586;BMP280;12743;52.262;6.172;2022-08-30T03:28:54;101824.34;;;14.47
24586;BMP280;12743;52.262;6.172;2022-08-30T03:31:19;101825.25;;;14.52
24586;BMP280;12743;52.262;6.172;2022-08-30T03:33:44;101831.88;;;14.58
24586;BMP280;12743;52.262;6.172;2022-08-30T03:36:10;101817.47;;;14.67
24586;BMP280;12743;52.262;6.172;2022-08-30T03:38:36;101831.75;;;14.75
24586;BMP280;12743;52.262;6.172;2022-08-30T03:41:02;101840.22;;;14.80
24586;BMP280;12743;52.262;6.172;2022-08-30T03:43:29;101841.66;;;14.78
24586;BMP280;12743;52.262;6.172;2022-08-30T03:45:58;101827.03;;;14.92
24586;BMP280;12743;52.262;6.172;2022-08-30T03:48:24;101832.28;;;14.47
24586;BMP280;12743;52.262;6.172;2022-08-30T03:50:50;101841.84;;;14.73
24586;BMP280;12743;52.262;6.172;2022-08-30T03:53:15;101830.66;;;14.55
24586;BMP280;12743;52.262;6.172;2022-08-30T03:55:41;101838.16;;;14.53
24586;BMP280;12743;52.262;6.172;2022-08-30T03:58:06;101839.72;;;14.66
24586;BMP280;12743;52.262;6.172;2022-08-30T04:00:32;101836.09;;;14.59
24586;BMP280;12743;52.262;6.172;2022-08-30T04:02:57;101837.19;;;14.58
24586;BMP280;12743;52.262;6.172;2022-08-30T04:05:23;101833.06;;;14.48
24586;BMP280;12743;52.262;6.172;2022-08-30T04:07:48;101837.25;;;14.49
24586;BMP280;12743;52.262;6.172;2022-08-30T04:10:14;101837.56;;;14.47
24586;BMP280;12743;52.262;6.172;2022-08-30T04:12:39;101835.16;;;14.55
24586;BMP280;12743;52.262;6.172;2022-08-30T04:15:05;101839.09;;;14.48
24586;BMP280;12743;52.262;6.172;2022-08-30T04:17:32;101843.28;;;14.49
24586;BMP280;12743;52.262;6.172;2022-08-30T04:19:57;101838.94;;;14.54
24586;BMP280;12743;52.262;6.172;2022-08-30T04:22:22;101836.91;;;14.50
24586;BMP280;12743;52.262;6.172;2022-08-30T04:24:48;101831.56;;;14.38
24586;BMP280;12743;52.262;6.172;2022-08-30T04:27:13;101844.84;;;14.30
24586;BMP280;12743;52.262;6.172;2022-08-30T04:29:38;101846.81;;;14.41
24586;BMP280;12743;52.262;6.172;2022-08-30T04:32:04;101840.06;;;14.23
24586;BMP280;12743;52.262;6.172;2022-08-30T04:34:29;101845.75;;;14.34
24586;BMP280;12743;52.262;6.172;2022-08-30T04:36:55;101833.00;;;14.36
24586;BMP280;12743;52.262;6.172;2022-08-30T04:39:20;101844.06;;;14.29
24586;BMP280;12743;52.262;6.172;2022-08-30T04:41:46;101852.09;;;14.41
24586;BMP280;12743;52.262;6.172;2022-08-30T04:44:11;101854.72;;;14.41
24586;BMP280;12743;52.262;6.172;2022-08-30T04:46:36;101859.75;;;14.34
24586;BMP280;12743;52.262;6.172;2022-08-30T04:49:03;101858.41;;;14.20
24586;BMP280;12743;52.262;6.172;2022-08-30T04:51:28;101855.47;;;14.21
24586;BMP280;12743;52.262;6.172;2022-08-30T04:53:54;101854.31;;;14.31
24586;BMP280;12743;52.262;6.172;2022-08-30T04:56:20;101850.69;;;14.15
24586;BMP280;12743;52.262;6.172;2022-08-30T04:58:48;101857.06;;;14.14
24586;BMP280;12743;52.262;6.172;2022-08-30T05:01:17;101867.28;;;14.24
24586;BMP280;12743;52.262;6.172;2022-08-30T05:03:43;101867.63;;;14.14
24586;BMP280;12743;52.262;6.172;2022-08-30T05:06:10;101868.97;;;14.28
24586;BMP280;12743;52.262;6.172;2022-08-30T05:08:36;101869.44;;;14.42
24586;BMP280;12743;52.262;6.172;2022-08-30T05:11:03;101872.38;;;14.29
24586;BMP280;12743;52.262;6.172;2022-08-30T05:13:29;101863.47;;;14.33
24586;BMP280;12743;52.262;6.172;2022-08-30T05:15:55;101878.75;;;14.28
24586;BMP280;12743;52.262;6.172;2022-08-30T05:18:21;101876.00;;;14.24
24586;BMP280;12743;52.262;6.172;2022-08-30T05:20:46;101878.34;;;14.17
24586;BMP280;12743;52.262;6.172;2022-08-30T05:23:11;101883.50;;;14.14
24586;BMP280;12743;52.262;6.172;2022-08-30T05:25:39;101887.56;;;14.11
24586;BMP280;12743;52.262;6.172;2022-08-30T05:28:05;101887.00;;;14.06
24586;BMP280;12743;52.262;6.172;2022-08-30T05:30:33;101893.28;;;14.13
24586;BMP280;12743;52.262;6.172;2022-08-30T05:32:59;101891.53;;;14.26
24586;BMP280;12743;52.262;6.172;2022-08-30T05:35:24;101892.75;;;14.28
24586;BMP280;12743;52.262;6.172;2022-08-30T05:37:49;101867.50;;;14.10
24586;BMP280;12743;52.262;6.172;2022-08-30T05:40:15;101897.56;;;14.26
24586;BMP280;12743;52.262;6.172;2022-08-30T05:42:42;101897.25;;;14.28
24586;BMP280;12743;52.262;6.172;2022-08-30T05:45:08;101885.78;;;14.24
24586;BMP280;12743;52.262;6.172;2022-08-30T05:47:35;101893.25;;;14.42
24586;BMP280;12743;52.262;6.172;2022-08-30T05:50:00;101895.78;;;14.39
24586;BMP280;12743;52.262;6.172;2022-08-30T05:52:25;101885.00;;;14.44
24586;BMP280;12743;52.262;6.172;2022-08-30T05:54:53;101886.06;;;14.52
24586;BMP280;12743;52.262;6.172;2022-08-30T05:57:20;101875.53;;;14.64
24586;BMP280;12743;52.262;6.172;2022-08-30T05:59:46;101897.38;;;14.73
24586;BMP280;12743;52.262;6.172;2022-08-30T06:02:11;101907.00;;;14.98
24586;BMP280;12743;52.262;6.172;2022-08-30T06:04:36;101909.53;;;15.06
24586;BMP280;12743;52.262;6.172;2022-08-30T06:07:02;101894.13;;;15.08
24586;BMP280;12743;52.262;6.172;2022-08-30T06:09:28;101887.72;;;15.09
24586;BMP280;12743;52.262;6.172;2022-08-30T06:11:54;101894.38;;;15.15
24586;BMP280;12743;52.262;6.172;2022-08-30T06:14:19;101885.91;;;15.22
24586;BMP280;12743;52.262;6.172;2022-08-30T06:16:45;101905.19;;;15.22
24586;BMP280;12743;52.262;6.172;2022-08-30T06:19:12;101900.28;;;15.33
24586;BMP280;12743;52.262;6.172;2022-08-30T06:21:39;101899.28;;;15.38
24586;BMP280;12743;52.262;6.172;2022-08-30T06:24:07;101903.69;;;15.46
24586;BMP280;12743;52.262;6.172;2022-08-30T06:26:45;101895.53;;;15.51
24586;BMP280;12743;52.262;6.172;2022-08-30T06:29:15;101920.50;;;15.86
24586;BMP280;12743;52.262;6.172;2022-08-30T06:31:41;101914.19;;;15.78
24586;BMP280;12743;52.262;6.172;2022-08-30T06:34:07;101917.19;;;15.89
24586;BMP280;12743;52.262;6.172;2022-08-30T06:36:32;101897.88;;;15.76
24586;BMP280;12743;52.262;6.172;2022-08-30T06:38:59;101908.03;;;16.10
24586;BMP280;12743;52.262;6.172;2022-08-30T06:41:30;101904.91;;;16.21
24586;BMP280;12743;52.262;6.172;2022-08-30T06:43:57;101909.47;;;16.20
24586;BMP280;12743;52.262;6.172;2022-08-30T06:46:26;101913.25;;;16.47
24586;BMP280;12743;52.262;6.172;2022-08-30T06:48:52;101911.25;;;16.56
24586;BMP280;12743;52.262;6.172;2022-08-30T06:51:25;101910.88;;;16.57
24586;BMP280;12743;52.262;6.172;2022-08-30T06:53:52;101912.94;;;16.64
24586;BMP280;12743;52.262;6.172;2022-08-30T06:56:18;101913.13;;;16.83
24586;BMP280;12743;52.262;6.172;2022-08-30T06:58:44;101912.84;;;16.88
24586;BMP280;12743;52.262;6.172;2022-08-30T07:01:13;101920.44;;;17.02
24586;BMP280;12743;52.262;6.172;2022-08-30T07:03:38;101921.97;;;17.02
24586;BMP280;12743;52.262;6.172;2022-08-30T07:06:04;101924.63;;;17.02
24586;BMP280;12743;52.262;6.172;2022-08-30T07:08:29;101926.88;;;17.32
24586;BMP280;12743;52.262;6.172;2022-08-30T07:10:55;101917.38;;;17.31
24586;BMP280;12743;52.262;6.172;2022-08-30T07:13:21;101928.69;;;17.43
24586;BMP280;12743;52.262;6.172;2022-08-30T07:15:48;101917.63;;;17.57
24586;BMP280;12743;52.262;6.172;2022-08-30T07:18:13;101920.28;;;17.57
24586;BMP280;12743;52.262;6.172;2022-08-30T07:20:58;101922.16;;;17.56
24586;BMP280;12743;52.262;6.172;2022-08-30T07:23:29;101931.25;;;17.40
24586;BMP280;12743;52.262;6.172;2022-08-30T07:25:54;101911.91;;;17.70
24586;BMP280;12743;52.262;6.172;2022-08-30T07:28:20;101918.28;;;17.85
24586;BMP280;12743;52.262;6.172;2022-08-30T07:30:45;101904.03;;;17.93
24586;BMP280;12743;52.262;6.172;2022-08-30T07:33:10;101924.34;;;18.01
24586;BMP280;12743;52.262;6.172;2022-08-30T07:35:36;101923.31;;;18.06
24586;BMP280;12743;52.262;6.172;2022-08-30T07:38:01;101916.41;;;18.39
24586;BMP280;12743;52.262;6.172;2022-08-30T07:40:27;101911.97;;;18.28
24586;BMP280;12743;52.262;6.172;2022-08-30T07:42:52;101927.25;;;18.31
24586;BMP280;12743;52.262;6.172;2022-08-30T07:45:18;101924.22;;;18.13
24586;BMP280;12743;52.262;6.172;2022-08-30T07:47:44;101926.16;;;18.32
24586;BMP280;12743;52.262;6.172;2022-08-30T07:50:10;101922.56;;;18.62
24586;BMP280;12743;52.262;6.172;2022-08-30T07:52:35;101925.00;;;18.52
24586;BMP280;12743;52.262;6.172;2022-08-30T07:55:00;101922.06;;;18.57
24586;BMP280;12743;52.262;6.172;2022-08-30T07:57:26;101928.94;;;18.77
24586;BMP280;12743;52.262;6.172;2022-08-30T07:59:53;101927.13;;;19.04
24586;BMP280;12743;52.262;6.172;2022-08-30T08:02:18;101931.78;;;18.88
24586;BMP280;12743;52.262;6.172;2022-08-30T08:04:44;101917.91;;;18.78
24586;BMP280;12743;52.262;6.172;2022-08-30T08:07:10;101920.19;;;19.22
24586;BMP280;12743;52.262;6.172;2022-08-30T08:09:36;101929.69;;;19.45
24586;BMP280;12743;52.262;6.172;2022-08-30T08:12:04;101930.06;;;19.21
24586;BMP280;12743;52.262;6.172;2022-08-30T08:14:30;101929.53;;;19.12
24586;BMP280;12743;52.262;6.172;2022-08-30T08:16:55;101931.25;;;19.01
24586;BMP280;12743;52.262;6.172;2022-08-30T08:19:20;101933.03;;;19.16
24586;BMP280;12743;52.262;6.172;2022-08-30T08:21:46;101931.47;;;19.15
24586;BMP280;12743;52.262;6.172;2022-08-30T08:24:11;101930.84;;;19.22
24586;BMP280;12743;52.262;6.172;2022-08-30T08:26:37;101929.94;;;19.37
24586;BMP280;12743;52.262;6.172;2022-08-30T08:29:05;101930.41;;;19.42
24586;BMP280;12743;52.262;6.172;2022-08-30T08:31:31;101932.81;;;19.51
24586;BMP280;12743;52.262;6.172;2022-08-30T08:33:57;101935.28;;;19.37
24586;BMP280;12743;52.262;6.172;2022-08-30T08:36:25;101938.91;;;19.51
24586;BMP280;12743;52.262;6.172;2022-08-30T08:38:51;101929.91;;;19.59
24586;BMP280;12743;52.262;6.172;2022-08-30T08:41:31;101929.13;;;19.59
24586;BMP280;12743;52.262;6.172;2022-08-30T08:44:10;101929.00;;;20.04
24586;BMP280;12743;52.262;6.172;2022-08-30T08:46:46;101929.06;;;19.82
24586;BMP280;12743;52.262;6.172;2022-08-30T08:49:13;101931.97;;;19.69
24586;BMP280;12743;52.262;6.172;2022-08-30T08:51:39;101885.34;;;19.86
24586;BMP280;12743;52.262;6.172;2022-08-30T08:54:35;101924.00;;;20.32
24586;BMP280;12743;52.262;6.172;2022-08-30T08:57:03;101928.44;;;20.21
24586;BMP280;12743;52.262;6.172;2022-08-30T08:59:28;101936.13;;;19.97
24586;BMP280;12743;52.262;6.172;2022-08-30T09:01:57;101921.56;;;20.20
24586;BMP280;12743;52.262;6.172;2022-08-30T09:04:30;101927.53;;;20.40
24586;BMP280;12743;52.262;6.172;2022-08-30T09:07:00;101930.66;;;20.49
24586;BMP280;12743;52.262;6.172;2022-08-30T09:09:38;101935.31;;;20.22
24586;BMP280;12743;52.262;6.172;2022-08-30T09:12:06;101936.09;;;20.23
24586;BMP280;12743;52.262;6.172;2022-08-30T09:14:35;101923.25;;;20.02
24586;BMP280;12743;52.262;6.172;2022-08-30T09:17:10;101925.84;;;20.28
24586;BMP280;12743;52.262;6.172;2022-08-30T09:22:37;101926.63;;;20.62
24586;BMP280;12743;52.262;6.172;2022-08-30T09:27:37;101930.06;;;21.10
24586;BMP280;12743;52.262;6.172;2022-08-30T09:30:27;101921.88;;;20.89
24586;BMP280;12743;52.262;6.172;2022-08-30T09:35:24;101924.44;;;20.74
24586;BMP280;12743;52.262;6.172;2022-08-30T09:37:56;101925.09;;;20.64
24586;BMP280;12743;52.262;6.172;2022-08-30T09:40:38;101916.63;;;20.96
24586;BMP280;12743;52.262;6.172;2022-08-30T09:45:44;101928.03;;;20.93
24586;BMP280;12743;52.262;6.172;2022-08-30T09:59:25;101921.41;;;21.23
24586;BMP280;12743;52.262;6.172;2022-08-30T10:02:15;101923.50;;;21.00
24586;BMP280;12743;52.262;6.172;2022-08-30T10:04:55;101911.22;;;21.39
24586;BMP280;12743;52.262;6.172;2022-08-30T10:07:29;101909.81;;;21.63
24586;BMP280;12743;52.262;6.172;2022-08-30T10:10:16;101914.44;;;21.73
24586;BMP280;12743;52.262;6.172;2022-08-30T10:13:12;101910.50;;;21.49
24586;BMP280;12743;52.262;6.172;2022-08-30T10:15:57;101914.09;;;21.78
24586;BMP280;12743;52.262;6.172;2022-08-30T10:18:26;101908.34;;;21.76
24586;BMP280;12743;52.262;6.172;2022-08-30T10:21:02;101915.84;;;21.49
24586;BMP280;12743;52.262;6.172;2022-08-30T10:23:34;101911.44;;;21.85
24586;BMP280;12743;52.262;6.172;2022-08-30T10:28:44;101909.91;;;21.80
24586;BMP280;12743;52.262;6.172;2022-08-30T10:31:19;101916.50;;;22.11
24586;BMP280;12743;52.262;6.172;2022-08-30T10:33:52;101920.03;;;22.33
24586;BMP280;12743;52.262;6.172;2022-08-30T10:36:26;101915.41;;;22.33
24586;BMP280;12743;52.262;6.172;2022-08-30T10:38:52;101914.47;;;21.80
24586;BMP280;12743;52.262;6.172;2022-08-30T10:41:35;101912.31;;;22.10
24586;BMP280;12743;52.262;6.172;2022-08-30T10:46:40;101913.38;;;21.92
24586;BMP280;12743;52.262;6.172;2022-08-30T10:49:22;101905.47;;;22.30
24586;BMP280;12743;52.262;6.172;2022-08-30T10:51:57;101915.06;;;22.49
24586;BMP280;12743;52.262;6.172;2022-08-30T10:54:47;101908.06;;;22.02
24586;BMP280;12743;52.262;6.172;2022-08-30T10:57:15;101904.75;;;22.40
24586;BMP280;12743;52.262;6.172;2022-08-30T10:59:44;101890.22;;;22.59
24586;BMP280;12743;52.262;6.172;2022-08-30T11:13:20;101897.44;;;22.41
24586;BMP280;12743;52.262;6.172;2022-08-30T11:16:08;101892.13;;;22.51
24586;BMP280;12743;52.262;6.172;2022-08-30T11:18:50;101896.34;;;22.77
24586;BMP280;12743;52.262;6.172;2022-08-30T11:21:23;101878.34;;;22.53
24586;BMP280;12743;52.262;6.172;2022-08-30T11:23:59;101894.78;;;22.62
24586;BMP280;12743;52.262;6.172;2022-08-30T11:29:42;101897.06;;;23.09
24586;BMP280;12743;52.262;6.172;2022-08-30T11:47:58;101887.47;;;23.12
24586;BMP280;12743;52.262;6.172;2022-08-30T11:51:03;101884.94;;;23.77
24586;BMP280;12743;52.262;6.172;2022-08-30T11:53:43;101883.97;;;23.39
24586;BMP280;12743;52.262;6.172;2022-08-30T11:56:17;101881.19;;;23.60
24586;BMP280;12743;52.262;6.172;2022-08-30T11:59:00;101875.78;;;23.74
24586;BMP280;12743;52.262;6.172;2022-08-30T12:01:36;101871.84;;;23.89
24586;BMP280;12743;52.262;6.172;2022-08-30T12:04:12;101882.22;;;23.84
24586;BMP280;12743;52.262;6.172;2022-08-30T12:12:08;101866.13;;;23.80
24586;BMP280;12743;52.262;6.172;2022-08-30T12:20:04;101868.22;;;24.17
24586;BMP280;12743;52.262;6.172;2022-08-30T12:22:35;101855.38;;;23.87
24586;BMP280;12743;52.262;6.172;2022-08-30T12:25:12;101870.56;;;24.59
24586;BMP280;12743;52.262;6.172;2022-08-30T12:27:39;101865.59;;;24.06
24586;BMP280;12743;52.262;6.172;2022-08-30T12:30:06;101867.81;;;24.26
24586;BMP280;12743;52.262;6.172;2022-08-30T12:32:32;101851.00;;;24.59
24586;BMP280;12743;52.262;6.172;2022-08-30T12:35:02;101855.25;;;24.93
24586;BMP280;12743;52.262;6.172;2022-08-30T12:37:36;101858.47;;;24.37
24586;BMP280;12743;52.262;6.172;2022-08-30T12:42:36;101855.44;;;24.76
24586;BMP280;12743;52.262;6.172;2022-08-30T12:45:12;101855.09;;;24.26
24586;BMP280;12743;52.262;6.172;2022-08-30T12:50:15;101841.53;;;24.44
24586;BMP280;12743;52.262;6.172;2022-08-30T12:52:44;101854.53;;;24.89
24586;BMP280;12743;52.262;6.172;2022-08-30T12:55:22;101850.06;;;24.39
24586;BMP280;12743;52.262;6.172;2022-08-30T12:58:03;101841.72;;;24.67
24586;BMP280;12743;52.262;6.172;2022-08-30T13:00:33;101844.38;;;24.70
24586;BMP280;12743;52.262;6.172;2022-08-30T13:03:01;101835.47;;;25.44
24586;BMP280;12743;52.262;6.172;2022-08-30T13:05:31;101836.75;;;24.99
24586;BMP280;12743;52.262;6.172;2022-08-30T13:10:55;101832.31;;;25.15
24586;BMP280;12743;52.262;6.172;2022-08-30T13:16:44;101828.91;;;24.81
24586;BMP280;12743;52.262;6.172;2022-08-30T13:21:52;101823.81;;;24.09
24586;BMP280;12743;52.262;6.172;2022-08-30T13:24:17;101812.59;;;24.17
24586;BMP280;12743;52.262;6.172;2022-08-30T13:26:43;101819.41;;;25.07
24586;BMP280;12743;52.262;6.172;2022-08-30T13:29:21;101820.81;;;25.15
24586;BMP280;12743;52.262;6.172;2022-08-30T13:31:47;101815.44;;;25.15
24586;BMP280;12743;52.262;6.172;2022-08-30T13:34:12;101828.28;;;25.04
24586;BMP280;12743;52.262;6.172;2022-08-30T13:36:49;101816.59;;;25.17
24586;BMP280;12743;52.262;6.172;2022-08-30T13:39:16;101795.75;;;25.52
24586;BMP280;12743;52.262;6.172;2022-08-30T13:41:41;101810.91;;;25.08
24586;BMP280;12743;52.262;6.172;2022-08-30T13:44:07;101807.34;;;25.18
24586;BMP280;12743;52.262;6.172;2022-08-30T13:46:34;101798.94;;;25.13
24586;BMP280;12743;52.262;6.172;2022-08-30T13:49:03;101806.69;;;24.77
24586;BMP280;12743;52.262;6.172;2022-08-30T13:51:30;101803.72;;;25.32
24586;BMP280;12743;52.262;6.172;2022-08-30T13:53:55;101804.97;;;24.94
24586;BMP280;12743;52.262;6.172;2022-08-30T13:56:23;101797.44;;;24.78
24586;BMP280;12743;52.262;6.172;2022-08-30T13:58:48;101801.50;;;24.56
24586;BMP280;12743;52.262;6.172;2022-08-30T14:01:14;101804.47;;;24.65
24586;BMP280;12743;52.262;6.172;2022-08-30T14:03:39;101802.09;;;24.78
24586;BMP280;12743;52.262;6.172;2022-08-30T14:06:05;101800.38;;;24.57
24586;BMP280;12743;52.262;6.172;2022-08-30T14:08:31;101803.19;;;24.80
24586;BMP280;12743;52.262;6.172;2022-08-30T14:10:57;101798.97;;;24.79
24586;BMP280;12743;52.262;6.172;2022-08-30T14:13:23;101786.66;;;25.12
24586;BMP280;12743;52.262;6.172;2022-08-30T14:15:50;101793.44;;;25.77
24586;BMP280;12743;52.262;6.172;2022-08-30T14:18:15;101784.72;;;25.42
24586;BMP280;12743;52.262;6.172;2022-08-30T14:20:41;101785.19;;;25.87
24586;BMP280;12743;52.262;6.172;2022-08-30T14:23:06;101785.31;;;25.80
24586;BMP280;12743;52.262;6.172;2022-08-30T14:25:32;101784.72;;;25.92
24586;BMP280;12743;52.262;6.172;2022-08-30T14:27:58;101788.25;;;26.12
24586;BMP280;12743;52.262;6.172;2022-08-30T14:30:24;101787.31;;;25.99
24586;BMP280;12743;52.262;6.172;2022-08-30T14:32:50;101793.91;;;27.16
24586;BMP280;12743;52.262;6.172;2022-08-30T14:35:15;101792.06;;;27.13
24586;BMP280;12743;52.262;6.172;2022-08-30T14:37:47;101792.75;;;25.16
24586;BMP280;12743;52.262;6.172;2022-08-30T14:40:13;101794.50;;;25.29
24586;BMP280;12743;52.262;6.172;2022-08-30T14:42:39;101796.78;;;26.30
24586;BMP280;12743;52.262;6.172;2022-08-30T14:45:05;101784.84;;;25.85
24586;BMP280;12743;52.262;6.172;2022-08-30T14:47:30;101768.03;;;26.43
24586;BMP280;12743;52.262;6.172;2022-08-30T14:49:56;101776.50;;;26.65
24586;BMP280;12743;52.262;6.172;2022-08-30T14:52:25;101777.28;;;25.54
24586;BMP280;12743;52.262;6.172;2022-08-30T14:54:50;101783.22;;;25.91
24586;BMP280;12743;52.262;6.172;2022-08-30T14:57:16;101770.97;;;26.10
24586;BMP280;12743;52.262;6.172;2022-08-30T14:59:41;101777.72;;;26.60
24586;BMP280;12743;52.262;6.172;2022-08-30T15:02:06;101773.00;;;25.56
24586;BMP280;12743;52.262;6.172;2022-08-30T15:04:32;101757.25;;;25.01
24586;BMP280;12743;52.262;6.172;2022-08-30T15:06:57;101769.38;;;25.13
24586;BMP280;12743;52.262;6.172;2022-08-30T15:09:23;101765.91;;;25.12
24586;BMP280;12743;52.262;6.172;2022-08-30T15:11:53;101772.75;;;24.90
24586;BMP280;12743;52.262;6.172;2022-08-30T15:14:19;101762.81;;;24.50
24586;BMP280;12743;52.262;6.172;2022-08-30T15:16:45;101769.50;;;24.69
24586;BMP280;12743;52.262;6.172;2022-08-30T15:19:10;101744.72;;;24.17
24586;BMP280;12743;52.262;6.172;2022-08-30T15:21:39;101759.72;;;24.52
24586;BMP280;12743;52.262;6.172;2022-08-30T15:24:07;101744.19;;;23.88